sensor_id;sensor_type;location;lat;lon;timestamp;temperature;humidity
12386;DHT22;6257;57.634;18.310;2023-07-13T00:02:21;15.70;99.90
12386;DHT22;6257;57.634;18.310;2023-07-13T00:04:48;16.90;99.90
12386;DHT22;6257;57.634;18.310;2023-07-13T00:09:46;15.90;99.90
12386;DHT22;6257;57.634;18.310;2023-07-13T00:12:26;16.00;99.90
12386;DHT22;6257;57.634;18.310;2023-07-13T00:14:55;16.10;99.90
12386;DHT22;6257;57.634;18.310;2023-07-13T00:17:23;16.10;99.90
12386;DHT22;6257;57.634;18.310;2023-07-13T00:19:50;16.10;99.90
12386;DHT22;6257;57.634;18.310;2023-07-13T00:24:46;16.10;99.90
12386;DHT22;6257;57.634;18.310;2023-07-13T00:27:14;16.10;99.90
12386;DHT22;6257;57.634;18.310;2023-07-13T00:29:43;16.10;99.90
12386;DHT22;6257;57.634;18.310;2023-07-13T00:32:10;16.10;99.90
12386;DHT22;6257;57.634;18.310;2023-07-13T00:34:38;16.10;99.90
12386;DHT22;6257;57.634;18.310;2023-07-13T00:37:06;16.00;99.90
12386;DHT22;6257;57.634;18.310;2023-07-13T00:39:35;16.00;99.90
12386;DHT22;6257;57.634;18.310;2023-07-13T00:42:03;16.00;99.90
12386;DHT22;6257;57.634;18.310;2023-07-13T00:44:30;16.00;99.90
12386;DHT22;6257;57.634;18.310;2023-07-13T00:46:57;16.00;99.90
12386;DHT22;6257;57.634;18.310;2023-07-13T00:49:26;16.10;99.90
12386;DHT22;6257;57.634;18.310;2023-07-13T00:51:57;16.10;99.90
12386;DHT22;6257;57.634;18.310;2023-07-13T00:54:38;16.40;99.90
12386;DHT22;6257;57.634;18.310;2023-07-13T00:59:45;16.00;99.90
12386;DHT22;6257;57.634;18.310;2023-07-13T01:02:14;16.00;99.90
12386;DHT22;6257;57.634;18.310;2023-07-13T01:04:42;16.00;99.90
12386;DHT22;6257;57.634;18.310;2023-07-13T01:07:12;16.00;99.90
12386;DHT22;6257;57.634;18.310;2023-07-13T01:09:41;16.00;99.90
12386;DHT22;6257;57.634;18.310;2023-07-13T01:12:10;16.00;99.90
12386;DHT22;6257;57.634;18.310;2023-07-13T01:14:39;16.00;99.90
12386;DHT22;6257;57.634;18.310;2023-07-13T01:17:09;16.00;99.90
12386;DHT22;6257;57.634;18.310;2023-07-13T01:19:38;16.00;99.90
12386;DHT22;6257;57.634;18.310;2023-07-13T01:22:09;16.00;99.90
12386;DHT22;6257;57.634;18.310;2023-07-13T01:24:45;16.00;99.90
12386;DHT22;6257;57.634;18.310;2023-07-13T01:27:16;16.00;99.90
12386;DHT22;6257;57.634;18.310;2023-07-13T01:32:17;16.00;99.90
12386;DHT22;6257;57.634;18.310;2023-07-13T01:37:23;15.90;99.90
12386;DHT22;6257;57.634;18.310;2023-07-13T01:42:22;15.90;99.90
12386;DHT22;6257;57.634;18.310;2023-07-13T01:44:49;15.80;99.90
12386;DHT22;6257;57.634;18.310;2023-07-13T01:49:48;15.90;99.90
12386;DHT22;6257;57.634;18.310;2023-07-13T01:57:31;15.80;99.90
12386;DHT22;6257;57.634;18.310;2023-07-13T02:08:12;15.80;99.90
12386;DHT22;6257;57.634;18.310;2023-07-13T02:10:39;15.80;99.90
12386;DHT22;6257;57.634;18.310;2023-07-13T02:13:06;15.80;99.90
12386;DHT22;6257;57.634;18.310;2023-07-13T02:15:33;15.80;99.90
12386;DHT22;6257;57.634;18.310;2023-07-13T02:18:01;15.80;99.90
12386;DHT22;6257;57.634;18.310;2023-07-13T02:20:29;15.80;99.90
12386;DHT22;6257;57.634;18.310;2023-07-13T02:22:56;15.80;99.90
12386;DHT22;6257;57.634;18.310;2023-07-13T02:27:52;15.80;99.90
12386;DHT22;6257;57.634;18.310;2023-07-13T02:30:20;15.90;99.90
12386;DHT22;6257;57.634;18.310;2023-07-13T02:35:17;15.80;99.90
12386;DHT22;6257;57.634;18.310;2023-07-13T02:37:44;15.80;99.90
12386;DHT22;6257;57.634;18.310;2023-07-13T02:40:12;15.80;99.90
12386;DHT22;6257;57.634;18.310;2023-07-13T02:42:41;15.80;99.90
12386;DHT22;6257;57.634;18.310;2023-07-13T02:45:09;15.80;99.90
12386;DHT22;6257;57.634;18.310;2023-07-13T02:47:43;15.70;99.90
12386;DHT22;6257;57.634;18.310;2023-07-13T03:11:23;15.90;99.90
12386;DHT22;6257;57.634;18.310;2023-07-13T03:16:20;16.00;99.90
12386;DHT22;6257;57.634;18.310;2023-07-13T03:18:48;16.00;99.90
12386;DHT22;6257;57.634;18.310;2023-07-13T03:21:15;16.00;99.90
12386;DHT22;6257;57.634;18.310;2023-07-13T03:23:42;16.00;99.90
12386;DHT22;6257;57.634;18.310;2023-07-13T03:26:11;16.00;99.90
12386;DHT22;6257;57.634;18.310;2023-07-13T03:28:39;16.00;99.90
12386;DHT22;6257;57.634;18.310;2023-07-13T03:31:10;16.10;99.90
12386;DHT22;6257;57.634;18.310;2023-07-13T03:33:38;16.10;99.90
12386;DHT22;6257;57.634;18.310;2023-07-13T03:36:06;16.10;99.90
12386;DHT22;6257;57.634;18.310;2023-07-13T03:38:34;16.10;99.90
12386;DHT22;6257;57.634;18.310;2023-07-13T03:41:01;16.20;99.90
12386;DHT22;6257;57.634;18.310;2023-07-13T03:43:28;16.30;99.90
12386;DHT22;6257;57.634;18.310;2023-07-13T03:45:55;16.40;99.90
12386;DHT22;6257;57.634;18.310;2023-07-13T03:52:24;16.50;99.90
12386;DHT22;6257;57.634;18.310;2023-07-13T04:03:47;16.60;99.90
12386;DHT22;6257;57.634;18.310;2023-07-13T04:06:29;16.60;99.90
12386;DHT22;6257;57.634;18.310;2023-07-13T04:11:39;16.60;99.90
12386;DHT22;6257;57.634;18.310;2023-07-13T04:14:06;16.70;99.90
12386;DHT22;6257;57.634;18.310;2023-07-13T04:16:33;16.70;99.90
12386;DHT22;6257;57.634;18.310;2023-07-13T04:19:01;16.80;99.90
12386;DHT22;6257;57.634;18.310;2023-07-13T04:21:29;16.90;99.90
12386;DHT22;6257;57.634;18.310;2023-07-13T04:23:56;17.00;99.90
12386;DHT22;6257;57.634;18.310;2023-07-13T04:26:43;17.00;99.90
12386;DHT22;6257;57.634;18.310;2023-07-13T04:29:23;16.90;99.90
12386;DHT22;6257;57.634;18.310;2023-07-13T04:38:48;16.70;99.90
12386;DHT22;6257;57.634;18.310;2023-07-13T04:43:47;16.80;99.90
12386;DHT22;6257;57.634;18.310;2023-07-13T04:54:23;17.00;99.90
12386;DHT22;6257;57.634;18.310;2023-07-13T04:59:48;17.00;99.90
12386;DHT22;6257;57.634;18.310;2023-07-13T05:02:15;17.00;99.90
12386;DHT22;6257;57.634;18.310;2023-07-13T05:07:19;17.00;99.90
12386;DHT22;6257;57.634;18.310;2023-07-13T05:12:13;17.00;99.90
12386;DHT22;6257;57.634;18.310;2023-07-13T05:17:09;17.00;99.90
12386;DHT22;6257;57.634;18.310;2023-07-13T05:19:36;17.00;99.90
12386;DHT22;6257;57.634;18.310;2023-07-13T05:22:04;17.00;99.90
12386;DHT22;6257;57.634;18.310;2023-07-13T05:24:31;17.10;99.90
12386;DHT22;6257;57.634;18.310;2023-07-13T05:26:59;17.20;99.90
12386;DHT22;6257;57.634;18.310;2023-07-13T05:29:26;17.20;99.90
12386;DHT22;6257;57.634;18.310;2023-07-13T05:31:55;17.10;99.90
12386;DHT22;6257;57.634;18.310;2023-07-13T05:34:22;17.20;99.90
12386;DHT22;6257;57.634;18.310;2023-07-13T05:36:50;17.30;99.90
12386;DHT22;6257;57.634;18.310;2023-07-13T05:39:17;17.30;99.90
12386;DHT22;6257;57.634;18.310;2023-07-13T05:41:44;17.20;99.90
12386;DHT22;6257;57.634;18.310;2023-07-13T05:44:12;17.30;99.90
12386;DHT22;6257;57.634;18.310;2023-07-13T05:46:39;17.30;99.90
12386;DHT22;6257;57.634;18.310;2023-07-13T05:51:37;17.40;99.90
12386;DHT22;6257;57.634;18.310;2023-07-13T05:55:29;17.40;99.90
12386;DHT22;6257;57.634;18.310;2023-07-13T06:03:02;17.40;99.90
12386;DHT22;6257;57.634;18.310;2023-07-13T06:12:53;17.60;99.90
12386;DHT22;6257;57.634;18.310;2023-07-13T06:15:21;17.60;99.90
12386;DHT22;6257;57.634;18.310;2023-07-13T06:17:48;17.70;99.90
12386;DHT22;6257;57.634;18.310;2023-07-13T06:20:15;17.60;99.90
12386;DHT22;6257;57.634;18.310;2023-07-13T06:22:45;17.60;99.90
12386;DHT22;6257;57.634;18.310;2023-07-13T06:25:12;17.60;99.90
12386;DHT22;6257;57.634;18.310;2023-07-13T06:27:39;17.60;99.90
12386;DHT22;6257;57.634;18.310;2023-07-13T06:30:07;17.60;99.90
12386;DHT22;6257;57.634;18.310;2023-07-13T06:32:34;17.60;99.90
12386;DHT22;6257;57.634;18.310;2023-07-13T06:35:01;17.70;99.90
12386;DHT22;6257;57.634;18.310;2023-07-13T06:37:28;17.80;99.90
12386;DHT22;6257;57.634;18.310;2023-07-13T06:42:24;17.80;99.90
12386;DHT22;6257;57.634;18.310;2023-07-13T06:44:51;18.50;99.90
12386;DHT22;6257;57.634;18.310;2023-07-13T06:47:18;17.90;99.90
12386;DHT22;6257;57.634;18.310;2023-07-13T06:49:45;17.80;99.90
12386;DHT22;6257;57.634;18.310;2023-07-13T06:52:12;17.80;99.90
12386;DHT22;6257;57.634;18.310;2023-07-13T06:54:39;17.90;99.90
12386;DHT22;6257;57.634;18.310;2023-07-13T06:59:36;18.20;99.90
12386;DHT22;6257;57.634;18.310;2023-07-13T07:02:03;18.10;99.90
12386;DHT22;6257;57.634;18.310;2023-07-13T07:04:30;18.20;99.90
12386;DHT22;6257;57.634;18.310;2023-07-13T07:06:58;18.30;99.90
12386;DHT22;6257;57.634;18.310;2023-07-13T07:09:25;18.40;99.90
12386;DHT22;6257;57.634;18.310;2023-07-13T07:11:52;18.50;99.90
12386;DHT22;6257;57.634;18.310;2023-07-13T07:16:50;18.40;99.90
12386;DHT22;6257;57.634;18.310;2023-07-13T07:19:17;18.60;99.90
12386;DHT22;6257;57.634;18.310;2023-07-13T07:21:44;18.70;99.90
12386;DHT22;6257;57.634;18.310;2023-07-13T07:24:11;18.70;99.90
12386;DHT22;6257;57.634;18.310;2023-07-13T07:30:16;19.10;99.90
12386;DHT22;6257;57.634;18.310;2023-07-13T07:35:33;19.70;99.90
12386;DHT22;6257;57.634;18.310;2023-07-13T07:41:09;20.00;99.90
12386;DHT22;6257;57.634;18.310;2023-07-13T07:47:00;20.10;99.90
12386;DHT22;6257;57.634;18.310;2023-07-13T07:49:27;20.10;99.90
12386;DHT22;6257;57.634;18.310;2023-07-13T07:51:54;20.00;99.90
12386;DHT22;6257;57.634;18.310;2023-07-13T07:54:21;20.00;99.90
12386;DHT22;6257;57.634;18.310;2023-07-13T07:56:48;18.20;99.90
12386;DHT22;6257;57.634;18.310;2023-07-13T07:59:15;20.00;99.90
12386;DHT22;6257;57.634;18.310;2023-07-13T08:01:42;20.00;99.90
12386;DHT22;6257;57.634;18.310;2023-07-13T08:06:40;20.30;99.90
12386;DHT22;6257;57.634;18.310;2023-07-13T08:09:07;20.40;99.90
12386;DHT22;6257;57.634;18.310;2023-07-13T08:11:34;20.30;99.90
12386;DHT22;6257;57.634;18.310;2023-07-13T08:14:01;20.50;99.90
12386;DHT22;6257;57.634;18.310;2023-07-13T08:16:29;20.70;99.90
12386;DHT22;6257;57.634;18.310;2023-07-13T08:18:58;21.00;99.90
12386;DHT22;6257;57.634;18.310;2023-07-13T08:21:27;21.30;99.90
12386;DHT22;6257;57.634;18.310;2023-07-13T08:23:54;21.30;99.90
12386;DHT22;6257;57.634;18.310;2023-07-13T08:26:22;21.20;99.90
12386;DHT22;6257;57.634;18.310;2023-07-13T08:28:49;21.20;99.90
12386;DHT22;6257;57.634;18.310;2023-07-13T08:31:16;20.90;99.90
12386;DHT22;6257;57.634;18.310;2023-07-13T08:33:44;20.90;99.90
12386;DHT22;6257;57.634;18.310;2023-07-13T08:36:11;21.10;99.90
12386;DHT22;6257;57.634;18.310;2023-07-13T08:38:39;21.00;99.90
12386;DHT22;6257;57.634;18.310;2023-07-13T08:41:12;20.90;99.90
12386;DHT22;6257;57.634;18.310;2023-07-13T08:43:41;21.10;99.90
12386;DHT22;6257;57.634;18.310;2023-07-13T08:46:13;21.30;99.90
12386;DHT22;6257;57.634;18.310;2023-07-13T08:48:46;21.60;99.90
12386;DHT22;6257;57.634;18.310;2023-07-13T08:51:26;21.80;99.90
12386;DHT22;6257;57.634;18.310;2023-07-13T08:54:01;21.90;99.90
12386;DHT22;6257;57.634;18.310;2023-07-13T08:56:31;21.90;99.90
12386;DHT22;6257;57.634;18.310;2023-07-13T08:59:00;21.60;99.90
12386;DHT22;6257;57.634;18.310;2023-07-13T09:01:33;21.40;99.90
12386;DHT22;6257;57.634;18.310;2023-07-13T09:04:11;21.30;99.90
12386;DHT22;6257;57.634;18.310;2023-07-13T09:09:39;21.10;99.90
12386;DHT22;6257;57.634;18.310;2023-07-13T09:12:14;21.00;99.90
12386;DHT22;6257;57.634;18.310;2023-07-13T09:14:45;20.90;99.90
12386;DHT22;6257;57.634;18.310;2023-07-13T09:17:18;21.00;99.90
12386;DHT22;6257;57.634;18.310;2023-07-13T09:19:54;21.00;99.90
12386;DHT22;6257;57.634;18.310;2023-07-13T09:22:33;20.70;99.90
12386;DHT22;6257;57.634;18.310;2023-07-13T09:25:12;20.60;99.90
12386;DHT22;6257;57.634;18.310;2023-07-13T09:27:46;20.60;99.90
12386;DHT22;6257;57.634;18.310;2023-07-13T09:30:30;20.40;99.90
12386;DHT22;6257;57.634;18.310;2023-07-13T09:32:58;20.40;99.90
12386;DHT22;6257;57.634;18.310;2023-07-13T09:35:28;20.40;99.90
12386;DHT22;6257;57.634;18.310;2023-07-13T09:38:02;20.20;99.90
12386;DHT22;6257;57.634;18.310;2023-07-13T09:40:42;20.10;99.90
12386;DHT22;6257;57.634;18.310;2023-07-13T09:43:13;20.10;99.90
12386;DHT22;6257;57.634;18.310;2023-07-13T09:45:40;20.10;99.90
12386;DHT22;6257;57.634;18.310;2023-07-13T09:48:11;20.20;99.90
12386;DHT22;6257;57.634;18.310;2023-07-13T09:50:40;20.40;99.90
12386;DHT22;6257;57.634;18.310;2023-07-13T09:53:12;20.50;99.90
12386;DHT22;6257;57.634;18.310;2023-07-13T09:55:42;20.50;99.90
12386;DHT22;6257;57.634;18.310;2023-07-13T09:58:12;20.50;99.90
12386;DHT22;6257;57.634;18.310;2023-07-13T10:00:40;20.20;99.90
12386;DHT22;6257;57.634;18.310;2023-07-13T10:03:20;20.00;99.90
12386;DHT22;6257;57.634;18.310;2023-07-13T10:05:49;20.00;99.90
12386;DHT22;6257;57.634;18.310;2023-07-13T10:08:19;20.00;99.90
12386;DHT22;6257;57.634;18.310;2023-07-13T10:10:52;20.00;99.90
12386;DHT22;6257;57.634;18.310;2023-07-13T10:13:30;20.10;99.90
12386;DHT22;6257;57.634;18.310;2023-07-13T10:15:59;20.10;99.90
12386;DHT22;6257;57.634;18.310;2023-07-13T10:18:27;20.30;99.90
12386;DHT22;6257;57.634;18.310;2023-07-13T10:21:07;20.20;99.90
12386;DHT22;6257;57.634;18.310;2023-07-13T10:23:36;20.00;99.90
12386;DHT22;6257;57.634;18.310;2023-07-13T10:26:12;20.00;99.90
12386;DHT22;6257;57.634;18.310;2023-07-13T10:28:41;20.00;99.90
12386;DHT22;6257;57.634;18.310;2023-07-13T10:31:14;20.00;99.90
12386;DHT22;6257;57.634;18.310;2023-07-13T10:33:42;20.00;99.90
12386;DHT22;6257;57.634;18.310;2023-07-13T10:36:16;20.10;99.90
12386;DHT22;6257;57.634;18.310;2023-07-13T10:38:47;20.20;99.90
12386;DHT22;6257;57.634;18.310;2023-07-13T10:41:20;20.30;99.90
12386;DHT22;6257;57.634;18.310;2023-07-13T10:43:50;20.40;99.90
12386;DHT22;6257;57.634;18.310;2023-07-13T10:46:20;20.50;99.90
12386;DHT22;6257;57.634;18.310;2023-07-13T10:48:52;20.50;99.90
12386;DHT22;6257;57.634;18.310;2023-07-13T10:51:21;20.50;99.90
12386;DHT22;6257;57.634;18.310;2023-07-13T10:54:11;20.50;99.90
12386;DHT22;6257;57.634;18.310;2023-07-13T10:56:40;20.50;99.90
12386;DHT22;6257;57.634;18.310;2023-07-13T10:59:12;20.60;99.90
12386;DHT22;6257;57.634;18.310;2023-07-13T11:01:50;20.70;99.90
12386;DHT22;6257;57.634;18.310;2023-07-13T11:04:20;20.70;99.90
12386;DHT22;6257;57.634;18.310;2023-07-13T11:06:50;20.70;99.90
12386;DHT22;6257;57.634;18.310;2023-07-13T11:09:34;20.70;99.90
12386;DHT22;6257;57.634;18.310;2023-07-13T11:12:08;20.70;99.90
12386;DHT22;6257;57.634;18.310;2023-07-13T11:14:43;20.50;99.90
12386;DHT22;6257;57.634;18.310;2023-07-13T11:20:35;20.70;99.90
12386;DHT22;6257;57.634;18.310;2023-07-13T11:23:33;20.70;99.90
12386;DHT22;6257;57.634;18.310;2023-07-13T11:26:39;20.60;99.90
12386;DHT22;6257;57.634;18.310;2023-07-13T11:29:14;20.50;99.90
12386;DHT22;6257;57.634;18.310;2023-07-13T11:31:52;20.50;99.90
12386;DHT22;6257;57.634;18.310;2023-07-13T11:34:34;20.50;99.90
12386;DHT22;6257;57.634;18.310;2023-07-13T11:37:03;20.50;99.90
12386;DHT22;6257;57.634;18.310;2023-07-13T11:39:32;20.50;99.90
12386;DHT22;6257;57.634;18.310;2023-07-13T11:42:01;20.50;99.90
12386;DHT22;6257;57.634;18.310;2023-07-13T11:44:31;20.60;99.90
12386;DHT22;6257;57.634;18.310;2023-07-13T11:47:00;20.50;99.90
12386;DHT22;6257;57.634;18.310;2023-07-13T11:49:43;20.20;99.90
12386;DHT22;6257;57.634;18.310;2023-07-13T11:52:12;20.10;99.90
12386;DHT22;6257;57.634;18.310;2023-07-13T11:54:47;20.20;99.90
12386;DHT22;6257;57.634;18.310;2023-07-13T11:57:24;20.30;99.90
12386;DHT22;6257;57.634;18.310;2023-07-13T11:59:55;20.30;99.90
12386;DHT22;6257;57.634;18.310;2023-07-13T12:02:27;20.40;99.90
12386;DHT22;6257;57.634;18.310;2023-07-13T12:04:55;20.40;99.90
12386;DHT22;6257;57.634;18.310;2023-07-13T12:07:33;20.50;99.90
12386;DHT22;6257;57.634;18.310;2023-07-13T12:10:13;20.50;99.90
12386;DHT22;6257;57.634;18.310;2023-07-13T12:12:51;20.50;99.90
12386;DHT22;6257;57.634;18.310;2023-07-13T12:20:21;20.50;99.90
12386;DHT22;6257;57.634;18.310;2023-07-13T12:22:52;20.70;99.90
12386;DHT22;6257;57.634;18.310;2023-07-13T12:25:29;20.90;99.90
12386;DHT22;6257;57.634;18.310;2023-07-13T12:30:27;21.30;99.90
12386;DHT22;6257;57.634;18.310;2023-07-13T12:32:58;21.30;99.90
12386;DHT22;6257;57.634;18.310;2023-07-13T12:35:27;21.30;99.90
12386;DHT22;6257;57.634;18.310;2023-07-13T12:37:57;21.20;99.90
12386;DHT22;6257;57.634;18.310;2023-07-13T12:40:31;21.10;99.90
12386;DHT22;6257;57.634;18.310;2023-07-13T12:42:59;21.10;99.90
12386;DHT22;6257;57.634;18.310;2023-07-13T12:45:31;21.00;99.90
12386;DHT22;6257;57.634;18.310;2023-07-13T12:48:04;20.90;99.90
12386;DHT22;6257;57.634;18.310;2023-07-13T12:50:38;21.10;99.90
12386;DHT22;6257;57.634;18.310;2023-07-13T12:53:13;21.30;99.90
12386;DHT22;6257;57.634;18.310;2023-07-13T12:55:42;21.50;99.90
12386;DHT22;6257;57.634;18.310;2023-07-13T12:58:13;21.70;99.90
12386;DHT22;6257;57.634;18.310;2023-07-13T13:00:49;21.70;99.90
12386;DHT22;6257;57.634;18.310;2023-07-13T13:03:24;21.70;99.90
12386;DHT22;6257;57.634;18.310;2023-07-13T13:06:04;21.90;99.90
12386;DHT22;6257;57.634;18.310;2023-07-13T13:08:33;21.90;99.90
12386;DHT22;6257;57.634;18.310;2023-07-13T13:11:18;21.90;99.90
12386;DHT22;6257;57.634;18.310;2023-07-13T13:13:58;21.90;99.90
12386;DHT22;6257;57.634;18.310;2023-07-13T13:16:46;21.90;99.90
12386;DHT22;6257;57.634;18.310;2023-07-13T13:21:45;21.90;99.90
12386;DHT22;6257;57.634;18.310;2023-07-13T13:24:20;21.90;99.90
12386;DHT22;6257;57.634;18.310;2023-07-13T13:26:49;21.90;99.90
12386;DHT22;6257;57.634;18.310;2023-07-13T13:29:23;22.00;99.90
12386;DHT22;6257;57.634;18.310;2023-07-13T13:34:22;22.00;99.90
12386;DHT22;6257;57.634;18.310;2023-07-13T13:36:50;22.00;99.90
12386;DHT22;6257;57.634;18.310;2023-07-13T13:39:20;22.10;99.90
12386;DHT22;6257;57.634;18.310;2023-07-13T13:41:49;22.20;99.90
12386;DHT22;6257;57.634;18.310;2023-07-13T13:44:17;22.20;99.90
12386;DHT22;6257;57.634;18.310;2023-07-13T13:46:47;22.30;99.90
12386;DHT22;6257;57.634;18.310;2023-07-13T13:49:18;22.20;99.90
12386;DHT22;6257;57.634;18.310;2023-07-13T13:51:46;22.20;99.90
12386;DHT22;6257;57.634;18.310;2023-07-13T13:54:15;22.00;99.90
12386;DHT22;6257;57.634;18.310;2023-07-13T13:56:43;22.00;99.90
12386;DHT22;6257;57.634;18.310;2023-07-13T13:59:10;21.90;99.90
12386;DHT22;6257;57.634;18.310;2023-07-13T14:01:38;21.90;99.90
12386;DHT22;6257;57.634;18.310;2023-07-13T14:04:06;21.90;99.90
12386;DHT22;6257;57.634;18.310;2023-07-13T14:06:35;21.90;99.90
12386;DHT22;6257;57.634;18.310;2023-07-13T14:14:14;21.90;99.90
12386;DHT22;6257;57.634;18.310;2023-07-13T14:16:52;22.00;99.90
12386;DHT22;6257;57.634;18.310;2023-07-13T14:26:49;21.90;99.90
12386;DHT22;6257;57.634;18.310;2023-07-13T14:29:34;21.90;99.90
12386;DHT22;6257;57.634;18.310;2023-07-13T14:32:02;22.10;99.90
12386;DHT22;6257;57.634;18.310;2023-07-13T14:34:30;22.00;99.90
12386;DHT22;6257;57.634;18.310;2023-07-13T14:36:59;22.00;99.90
12386;DHT22;6257;57.634;18.310;2023-07-13T14:39:26;21.60;99.90
12386;DHT22;6257;57.634;18.310;2023-07-13T14:41:54;22.00;99.90
12386;DHT22;6257;57.634;18.310;2023-07-13T14:51:31;21.70;99.90
12386;DHT22;6257;57.634;18.310;2023-07-13T15:03:51;21.60;99.90
12386;DHT22;6257;57.634;18.310;2023-07-13T15:06:19;21.60;99.90
12386;DHT22;6257;57.634;18.310;2023-07-13T15:08:48;21.70;99.90
12386;DHT22;6257;57.634;18.310;2023-07-13T15:11:16;21.80;99.90
12386;DHT22;6257;57.634;18.310;2023-07-13T15:13:44;21.70;99.90
12386;DHT22;6257;57.634;18.310;2023-07-13T15:16:16;21.60;99.90
12386;DHT22;6257;57.634;18.310;2023-07-13T15:19:01;21.50;99.90
12386;DHT22;6257;57.634;18.310;2023-07-13T15:21:31;21.40;99.90
12386;DHT22;6257;57.634;18.310;2023-07-13T15:24:00;21.30;99.90
12386;DHT22;6257;57.634;18.310;2023-07-13T15:26:28;21.40;99.90
12386;DHT22;6257;57.634;18.310;2023-07-13T15:28:58;21.40;99.90
12386;DHT22;6257;57.634;18.310;2023-07-13T15:31:26;21.40;99.90
12386;DHT22;6257;57.634;18.310;2023-07-13T15:33:56;21.50;99.90
12386;DHT22;6257;57.634;18.310;2023-07-13T15:36:25;21.50;99.90
12386;DHT22;6257;57.634;18.310;2023-07-13T15:38:53;21.50;99.90
12386;DHT22;6257;57.634;18.310;2023-07-13T15:41:22;21.50;99.90
12386;DHT22;6257;57.634;18.310;2023-07-13T15:43:51;21.60;99.90
12386;DHT22;6257;57.634;18.310;2023-07-13T15:46:20;21.50;99.90
12386;DHT22;6257;57.634;18.310;2023-07-13T15:48:47;21.50;99.90
12386;DHT22;6257;57.634;18.310;2023-07-13T15:51:20;21.30;99.90
12386;DHT22;6257;57.634;18.310;2023-07-13T15:53:47;21.40;99.90
12386;DHT22;6257;57.634;18.310;2023-07-13T15:56:20;21.20;99.90
12386;DHT22;6257;57.634;18.310;2023-07-13T15:58:49;21.20;99.90
12386;DHT22;6257;57.634;18.310;2023-07-13T16:01:17;21.10;99.90
12386;DHT22;6257;57.634;18.310;2023-07-13T16:03:45;21.00;99.90
12386;DHT22;6257;57.634;18.310;2023-07-13T16:06:18;21.00;99.90
12386;DHT22;6257;57.634;18.310;2023-07-13T16:08:49;21.00;99.90
12386;DHT22;6257;57.634;18.310;2023-07-13T16:11:19;21.00;99.90
12386;DHT22;6257;57.634;18.310;2023-07-13T16:13:50;21.00;99.90
12386;DHT22;6257;57.634;18.310;2023-07-13T16:16:34;21.00;99.90
12386;DHT22;6257;57.634;18.310;2023-07-13T16:19:05;20.90;99.90
12386;DHT22;6257;57.634;18.310;2023-07-13T16:21:48;20.90;99.90
12386;DHT22;6257;57.634;18.310;2023-07-13T16:29:24;20.70;99.90
12386;DHT22;6257;57.634;18.310;2023-07-13T16:41:34;20.40;99.90
12386;DHT22;6257;57.634;18.310;2023-07-13T16:44:01;23.60;99.90
12386;DHT22;6257;57.634;18.310;2023-07-13T16:46:32;19.90;99.90
12386;DHT22;6257;57.634;18.310;2023-07-13T16:51:32;20.30;99.90
12386;DHT22;6257;57.634;18.310;2023-07-13T16:54:00;20.30;99.90
12386;DHT22;6257;57.634;18.310;2023-07-13T16:56:27;20.30;99.90
12386;DHT22;6257;57.634;18.310;2023-07-13T16:58:56;20.20;99.90
12386;DHT22;6257;57.634;18.310;2023-07-13T17:01:23;20.20;99.90
12386;DHT22;6257;57.634;18.310;2023-07-13T17:03:50;20.10;99.90
12386;DHT22;6257;57.634;18.310;2023-07-13T17:06:26;20.10;99.90
12386;DHT22;6257;57.634;18.310;2023-07-13T17:08:55;20.10;99.90
12386;DHT22;6257;57.634;18.310;2023-07-13T17:11:23;20.00;99.90
12386;DHT22;6257;57.634;18.310;2023-07-13T17:13:54;19.90;99.90
12386;DHT22;6257;57.634;18.310;2023-07-13T17:16:22;19.80;99.90
12386;DHT22;6257;57.634;18.310;2023-07-13T17:18:51;19.70;99.90
12386;DHT22;6257;57.634;18.310;2023-07-13T17:21:18;19.60;99.90
12386;DHT22;6257;57.634;18.310;2023-07-13T17:23:45;19.50;99.90
12386;DHT22;6257;57.634;18.310;2023-07-13T17:26:12;19.50;99.90
12386;DHT22;6257;57.634;18.310;2023-07-13T17:28:40;19.50;99.90
12386;DHT22;6257;57.634;18.310;2023-07-13T17:31:14;19.50;99.90
12386;DHT22;6257;57.634;18.310;2023-07-13T17:33:45;19.40;99.90
12386;DHT22;6257;57.634;18.310;2023-07-13T17:36:14;19.30;99.90
12386;DHT22;6257;57.634;18.310;2023-07-13T17:38:42;19.30;99.90
12386;DHT22;6257;57.634;18.310;2023-07-13T17:41:11;19.20;99.90
12386;DHT22;6257;57.634;18.310;2023-07-13T17:43:41;19.20;99.90
12386;DHT22;6257;57.634;18.310;2023-07-13T17:46:26;19.10;99.90
12386;DHT22;6257;57.634;18.310;2023-07-13T17:48:54;19.00;99.90
12386;DHT22;6257;57.634;18.310;2023-07-13T17:51:21;18.90;99.90
12386;DHT22;6257;57.634;18.310;2023-07-13T17:53:48;18.90;99.90
12386;DHT22;6257;57.634;18.310;2023-07-13T17:56:16;18.90;99.90
12386;DHT22;6257;57.634;18.310;2023-07-13T18:01:35;18.70;99.90
12386;DHT22;6257;57.634;18.310;2023-07-13T18:06:49;18.70;99.90
12386;DHT22;6257;57.634;18.310;2023-07-13T18:09:27;18.60;99.90
12386;DHT22;6257;57.634;18.310;2023-07-13T18:13:04;18.50;99.90
12386;DHT22;6257;57.634;18.310;2023-07-13T18:21:04;18.40;99.90
12386;DHT22;6257;57.634;18.310;2023-07-13T18:23:31;18.30;99.90
12386;DHT22;6257;57.634;18.310;2023-07-13T18:25:58;18.30;99.90
12386;DHT22;6257;57.634;18.310;2023-07-13T18:28:26;18.20;99.90
12386;DHT22;6257;57.634;18.310;2023-07-13T18:30:54;18.20;99.90
12386;DHT22;6257;57.634;18.310;2023-07-13T18:33:23;18.10;99.90
12386;DHT22;6257;57.634;18.310;2023-07-13T18:35:52;18.10;99.90
12386;DHT22;6257;57.634;18.310;2023-07-13T18:38:21;18.00;99.90
12386;DHT22;6257;57.634;18.310;2023-07-13T18:40:50;18.00;99.90
12386;DHT22;6257;57.634;18.310;2023-07-13T18:43:19;17.90;99.90
12386;DHT22;6257;57.634;18.310;2023-07-13T18:45:56;17.80;99.90
12386;DHT22;6257;57.634;18.310;2023-07-13T18:48:26;17.80;99.90
12386;DHT22;6257;57.634;18.310;2023-07-13T18:50:55;17.80;99.90
12386;DHT22;6257;57.634;18.310;2023-07-13T18:53:23;17.70;99.90
12386;DHT22;6257;57.634;18.310;2023-07-13T18:55:52;17.60;99.90
12386;DHT22;6257;57.634;18.310;2023-07-13T19:19:00;17.20;99.90
12386;DHT22;6257;57.634;18.310;2023-07-13T19:21:33;17.10;99.90
12386;DHT22;6257;57.634;18.310;2023-07-13T19:26:35;17.00;99.90
12386;DHT22;6257;57.634;18.310;2023-07-13T19:29:03;16.90;99.90
12386;DHT22;6257;57.634;18.310;2023-07-13T19:31:32;16.90;99.90
12386;DHT22;6257;57.634;18.310;2023-07-13T19:34:04;16.80;99.90
12386;DHT22;6257;57.634;18.310;2023-07-13T19:36:32;16.80;99.90
12386;DHT22;6257;57.634;18.310;2023-07-13T19:39:03;16.70;99.90
12386;DHT22;6257;57.634;18.310;2023-07-13T19:41:34;16.70;99.90
12386;DHT22;6257;57.634;18.310;2023-07-13T19:44:04;16.70;99.90
12386;DHT22;6257;57.634;18.310;2023-07-13T19:46:34;16.60;99.90
12386;DHT22;6257;57.634;18.310;2023-07-13T19:49:05;16.60;99.90
12386;DHT22;6257;57.634;18.310;2023-07-13T19:51:33;16.50;99.90
12386;DHT22;6257;57.634;18.310;2023-07-13T20:01:12;16.40;99.90